Time;durP1;ratioP1;P1;durP2;ratioP2;P2;SDS_P1;SDS_P2;PMS_P1;PMS_P2;Temp;Humidity;BMP_temperature;BMP_pressure;BME280_temperature;BME280_humidity;BME280_pressure;Samples;Min_cycle;Max_cycle;Signal;HPM_P1;HPM_P2
2023/06/13 00:00:49;;;;;;;6.53;5.57;;;23.80;35.20;;;;;;4921183;29;20530;-86
2023/06/13 00:03:19;;;;;;;9.93;4.73;;;23.70;35.20;;;;;;4927153;29;20443;-86
2023/06/13 00:05:46;;;;;;;4.93;3.87;;;23.60;34.40;;;;;;4930891;29;20817;-87
2023/06/13 00:08:17;;;;;;;5.97;4.33;;;23.50;35.00;;;;;;4943932;28;20975;-87
2023/06/13 00:10:45;;;;;;;8.37;4.33;;;23.50;34.60;;;;;;4904454;29;20810;-86
2023/06/13 00:13:13;;;;;;;8.60;4.70;;;23.30;34.60;;;;;;4921327;29;20506;-85
2023/06/13 00:15:50;;;;;;;5.70;4.20;;;23.20;35.30;;;;;;4921554;29;20469;-85
2023/06/13 00:18:17;;;;;;;5.10;4.43;;;23.20;36.00;;;;;;4925977;29;20565;-87
2023/06/13 00:20:44;;;;;;;5.43;4.90;;;23.20;36.10;;;;;;4929264;28;20459;-86
2023/06/13 00:23:12;;;;;;;5.00;4.60;;;23.20;35.80;;;;;;4923839;29;20472;-85
2023/06/13 00:25:39;;;;;;;6.27;4.70;;;23.20;36.30;;;;;;4911366;29;20751;-85
2023/06/13 00:28:06;;;;;;;5.63;4.50;;;23.20;36.00;;;;;;4947926;28;20462;-86
2023/06/13 00:30:33;;;;;;;6.43;4.67;;;23.20;35.90;;;;;;4910009;29;20465;-87
2023/06/13 00:33:01;;;;;;;6.17;4.57;;;23.20;35.80;;;;;;4917842;29;20822;-86
2023/06/13 00:35:28;;;;;;;6.07;4.50;;;23.20;36.10;;;;;;4925865;29;20462;-86
2023/06/13 00:37:57;;;;;;;8.10;4.57;;;23.20;35.90;;;;;;4904873;29;20486;-86
2023/06/13 00:40:26;;;;;;;5.00;4.50;;;23.20;35.90;;;;;;4935850;29;20463;-86
2023/06/13 00:42:53;;;;;;;5.60;5.10;;;23.10;35.70;;;;;;4903452;29;20453;-86
2023/06/13 00:45:23;;;;;;;6.13;4.20;;;23.10;35.60;;;;;;4931592;28;20524;-85
2023/06/13 00:47:54;;;;;;;5.80;5.20;;;23.00;36.00;;;;;;4924420;29;20478;-85
2023/06/13 00:50:27;;;;;;;6.70;5.00;;;23.00;35.80;;;;;;4909827;29;20984;-87
2023/06/13 00:52:56;;;;;;;5.50;4.73;;;23.00;35.80;;;;;;4922466;29;20521;-86
2023/06/13 00:55:25;;;;;;;7.23;5.00;;;22.90;36.20;;;;;;4918563;29;20514;-86
2023/06/13 00:57:55;;;;;;;5.13;4.70;;;22.90;36.30;;;;;;4904699;29;20542;-87
2023/06/13 01:00:26;;;;;;;6.30;5.03;;;22.90;36.20;;;;;;4933638;29;20454;-86
2023/06/13 01:02:57;;;;;;;5.53;4.40;;;22.90;36.50;;;;;;4925094;29;20454;-86
2023/06/13 01:05:28;;;;;;;6.13;5.53;;;22.90;36.30;;;;;;4923079;29;20457;-85
2023/06/13 01:07:57;;;;;;;7.73;4.73;;;22.90;36.50;;;;;;4918238;29;20574;-86
2023/06/13 01:10:26;;;;;;;5.20;4.70;;;22.90;36.60;;;;;;4904817;29;20450;-87
2023/06/13 01:13:01;;;;;;;5.03;4.40;;;22.90;36.80;;;;;;4916997;29;20550;-87
2023/06/13 01:15:33;;;;;;;6.33;5.07;;;22.80;36.60;;;;;;4925527;29;20454;-86
2023/06/13 01:18:03;;;;;;;9.37;4.70;;;22.80;36.60;;;;;;4902300;29;20515;-85
2023/06/13 01:20:33;;;;;;;6.40;5.40;;;22.80;36.70;;;;;;4924129;29;20459;-86
2023/06/13 01:23:14;;;;;;;5.80;4.70;;;22.70;36.60;;;;;;4923368;29;20458;-86
2023/06/13 01:25:57;;;;;;;6.83;5.33;;;22.70;37.20;;;;;;4944586;28;20443;-86
2023/06/13 01:28:26;;;;;;;5.47;4.97;;;22.70;37.20;;;;;;4923037;29;20485;-84
2023/06/13 01:30:56;;;;;;;5.30;4.67;;;22.70;36.90;;;;;;4930493;29;20818;-85
2023/06/13 01:33:24;;;;;;;5.73;5.13;;;22.70;36.90;;;;;;4909159;29;20461;-86
2023/06/13 01:35:52;;;;;;;6.40;5.17;;;22.70;37.50;;;;;;4932680;28;20540;-85
2023/06/13 01:38:20;;;;;;;4.57;4.17;;;22.70;37.40;;;;;;4920513;29;20556;-86
2023/06/13 01:40:48;;;;;;;6.30;4.90;;;22.60;37.50;;;;;;4906232;29;20451;-85
2023/06/13 01:43:15;;;;;;;6.97;5.33;;;22.60;37.20;;;;;;4917843;29;20443;-85
2023/06/13 01:45:44;;;;;;;5.10;4.70;;;22.60;37.40;;;;;;4916685;29;20451;-88
2023/06/13 01:48:17;;;;;;;8.83;4.90;;;22.60;37.50;;;;;;4917260;29;20461;-85
2023/06/13 01:50:50;;;;;;;5.60;4.57;;;22.60;37.80;;;;;;4933386;29;20445;-86
2023/06/13 01:53:27;;;;;;;4.60;4.20;;;22.50;37.40;;;;;;4907793;29;20557;-86
2023/06/13 01:56:00;;;;;;;5.07;4.57;;;22.50;38.30;;;;;;4920319;29;20454;-87
2023/06/13 01:58:32;;;;;;;5.27;4.77;;;22.40;37.50;;;;;;4918610;29;20529;-88
2023/06/13 02:01:03;;;;;;;5.50;5.00;;;22.30;37.70;;;;;;4909645;29;20450;-86
2023/06/13 02:03:31;;;;;;;5.30;4.60;;;22.30;38.00;;;;;;4909455;29;20538;-85
2023/06/13 02:05:58;;;;;;;5.00;4.40;;;22.30;38.00;;;;;;4924508;29;20449;-86
2023/06/13 02:08:26;;;;;;;5.37;4.57;;;22.30;38.40;;;;;;4922807;29;20463;-86
2023/06/13 02:10:53;;;;;;;6.90;5.00;;;22.30;38.50;;;;;;4923601;29;20455;-85
2023/06/13 02:13:20;;;;;;;6.60;4.57;;;22.30;38.70;;;;;;4922188;29;21011;-86
2023/06/13 02:15:47;;;;;;;4.33;4.00;;;22.20;38.80;;;;;;4909107;29;20459;-87
2023/06/13 02:18:16;;;;;;;5.23;4.73;;;22.20;39.00;;;;;;4907683;29;20475;-86
2023/06/13 02:20:43;;;;;;;7.20;4.70;;;22.20;38.90;;;;;;4935730;29;21757;-86
2023/06/13 02:23:10;;;;;;;4.73;4.30;;;22.10;38.80;;;;;;4942737;29;20463;-86
2023/06/13 02:25:37;;;;;;;6.20;4.87;;;22.10;38.90;;;;;;4923387;29;20531;-85
2023/06/13 02:28:05;;;;;;;5.50;5.00;;;22.10;39.30;;;;;;4910360;29;20481;-86
2023/06/13 02:30:31;;;;;;;6.53;4.93;;;22.10;39.00;;;;;;4934531;29;20469;-86
2023/06/13 02:33:01;;;;;;;5.23;4.40;;;22.00;38.80;;;;;;4927040;29;20658;-87
2023/06/13 02:35:30;;;;;;;5.30;4.80;;;21.90;38.90;;;;;;4911462;29;20447;-86
2023/06/13 02:37:57;;;;;;;5.80;4.47;;;21.90;39.40;;;;;;4908065;29;20474;-86
2023/06/13 02:40:24;;;;;;;5.43;4.93;;;21.90;39.70;;;;;;4909576;29;20470;-87
2023/06/13 02:42:53;;;;;;;7.40;5.40;;;21.80;39.40;;;;;;4908780;29;21104;-89
2023/06/13 02:45:20;;;;;;;5.27;4.80;;;21.80;39.50;;;;;;4923091;29;20438;-88
2023/06/13 02:47:47;;;;;;;6.80;5.13;;;21.80;39.90;;;;;;4921364;29;20480;-85
2023/06/13 02:50:15;;;;;;;7.23;5.10;;;21.80;40.00;;;;;;4912599;29;20439;-86
2023/06/13 02:52:44;;;;;;;7.63;4.63;;;21.70;39.90;;;;;;4934068;29;20486;-87
2023/06/13 02:55:11;;;;;;;7.20;5.57;;;21.70;40.00;;;;;;4906062;29;20851;-87
2023/06/13 02:57:38;;;;;;;4.53;4.13;;;21.60;40.20;;;;;;4926512;28;20854;-87
2023/06/13 03:00:08;;;;;;;5.83;5.30;;;21.50;40.10;;;;;;4928457;29;20459;-87
2023/06/13 03:02:37;;;;;;;10.37;5.60;;;21.40;40.60;;;;;;4913185;29;20446;-86
2023/06/13 03:05:08;;;;;;;6.33;5.60;;;21.40;41.20;;;;;;4930302;29;20458;-88
2023/06/13 03:07:35;;;;;;;10.07;5.73;;;21.30;41.80;;;;;;4925184;29;20463;-87
2023/06/13 03:10:05;;;;;;;6.60;6.00;;;21.20;42.00;;;;;;4913065;29;20459;-86
2023/06/13 03:12:37;;;;;;;7.70;5.20;;;21.10;42.40;;;;;;4918324;29;20454;-86
2023/06/13 03:15:06;;;;;;;6.50;5.73;;;21.10;42.80;;;;;;4941459;29;20521;-86
2023/06/13 03:17:34;;;;;;;7.13;5.50;;;21.00;42.80;;;;;;4912358;29;20454;-86
2023/06/13 03:20:05;;;;;;;7.40;5.83;;;21.00;42.90;;;;;;4914790;29;20531;-87
2023/06/13 03:22:33;;;;;;;7.17;5.80;;;20.90;43.40;;;;;;4935998;29;20486;-86
2023/06/13 03:25:04;;;;;;;7.87;6.10;;;20.90;43.80;;;;;;4926909;29;20446;-86
2023/06/13 03:27:34;;;;;;;7.67;5.67;;;20.90;43.80;;;;;;4910988;29;20454;-86
2023/06/13 03:30:01;;;;;;;5.83;5.30;;;20.80;44.10;;;;;;4910636;29;20467;-87
2023/06/13 03:32:29;;;;;;;8.53;5.83;;;20.70;43.80;;;;;;4922401;29;20540;-87
2023/06/13 03:34:56;;;;;;;8.83;6.10;;;20.70;44.00;;;;;;4904466;29;20824;-85
2023/06/13 03:37:23;;;;;;;7.83;6.67;;;20.60;44.20;;;;;;4926248;29;20461;-85
2023/06/13 03:39:50;;;;;;;9.93;5.33;;;20.60;43.90;;;;;;4919848;29;20474;-86
2023/06/13 03:42:17;;;;;;;8.30;5.90;;;20.60;44.00;;;;;;4916597;29;20541;-87
2023/06/13 03:44:48;;;;;;;7.63;5.50;;;20.60;44.40;;;;;;4909626;29;20462;-88
2023/06/13 03:47:15;;;;;;;6.40;5.80;;;20.60;44.30;;;;;;4911936;29;20462;-86
2023/06/13 03:49:43;;;;;;;8.63;5.30;;;20.60;44.50;;;;;;4918860;29;20567;-87
2023/06/13 03:52:11;;;;;;;9.57;5.33;;;20.60;44.10;;;;;;4912347;29;20491;-87
2023/06/13 03:54:38;;;;;;;6.63;5.43;;;20.60;44.40;;;;;;4934856;29;20517;-86
2023/06/13 03:57:06;;;;;;;7.03;5.53;;;20.50;44.50;;;;;;4937296;29;20466;-87
2023/06/13 03:59:34;;;;;;;6.10;5.33;;;20.50;44.40;;;;;;4943079;28;20492;-87
2023/06/13 04:02:03;;;;;;;6.13;5.53;;;20.50;44.60;;;;;;4938064;28;20537;-87
2023/06/13 04:04:32;;;;;;;6.30;5.07;;;20.50;45.10;;;;;;4910943;29;20458;-89
2023/06/13 04:07:04;;;;;;;6.87;5.90;;;20.50;44.30;;;;;;4930396;29;20450;-89
2023/06/13 04:09:31;;;;;;;10.20;5.67;;;20.50;44.60;;;;;;4921888;29;20479;-87
2023/06/13 04:11:58;;;;;;;7.03;6.20;;;20.50;44.90;;;;;;4921469;29;20450;-87
2023/06/13 04:14:24;;;;;;;7.93;6.10;;;20.50;45.10;;;;;;4918609;29;20454;-89
2023/06/13 04:16:52;;;;;;;9.10;6.33;;;20.50;45.10;;;;;;4911857;29;20468;-89
2023/06/13 04:19:21;;;;;;;6.77;6.13;;;20.50;45.60;;;;;;4908253;29;21018;-89
2023/06/13 04:21:48;;;;;;;5.97;5.33;;;20.50;45.70;;;;;;4925543;29;20471;-89
2023/06/13 04:24:15;;;;;;;7.80;6.13;;;20.50;45.40;;;;;;4926782;29;20864;-88
2023/06/13 04:26:45;;;;;;;8.77;6.17;;;20.50;46.50;;;;;;4916316;29;20533;-87
2023/06/13 04:29:15;;;;;;;6.03;5.43;;;20.50;45.50;;;;;;4932298;28;21075;-88
2023/06/13 04:31:42;;;;;;;7.03;6.10;;;20.50;45.40;;;;;;4907429;29;20461;-88
2023/06/13 04:34:11;;;;;;;8.10;6.07;;;20.50;45.20;;;;;;4912086;29;20481;-87
2023/06/13 04:36:41;;;;;;;6.80;6.10;;;20.50;45.20;;;;;;4924894;29;20445;-88
2023/06/13 04:39:08;;;;;;;7.53;6.73;;;20.60;45.00;;;;;;4909943;29;20478;-87
2023/06/13 04:41:37;;;;;;;6.10;5.50;;;20.50;45.10;;;;;;4909783;29;20486;-87
2023/06/13 04:44:05;;;;;;;6.27;5.67;;;20.50;45.20;;;;;;4936436;29;20455;-88
2023/06/13 04:46:32;;;;;;;8.20;5.47;;;20.60;45.60;;;;;;4920889;29;20829;-88
2023/06/13 04:49:00;;;;;;;7.23;6.03;;;20.60;45.70;;;;;;4922480;29;20473;-88
2023/06/13 04:51:27;;;;;;;7.47;6.03;;;20.60;46.10;;;;;;4944192;29;20477;-88
2023/06/13 04:53:58;;;;;;;5.83;5.20;;;20.60;46.40;;;;;;4922711;29;20476;-88
2023/06/13 04:56:26;;;;;;;6.90;5.93;;;20.60;45.90;;;;;;4906167;29;20967;-88
2023/06/13 04:58:55;;;;;;;7.43;5.60;;;20.60;46.00;;;;;;4925853;29;20998;-89
2023/06/13 05:01:26;;;;;;;7.07;5.70;;;20.60;46.20;;;;;;4924389;29;20442;-88
2023/06/13 05:03:53;;;;;;;6.83;5.67;;;20.60;45.80;;;;;;4926013;29;20490;-89
2023/06/13 05:06:20;;;;;;;8.50;5.33;;;20.50;46.30;;;;;;4922637;29;20457;-87
2023/06/13 05:08:47;;;;;;;6.20;5.60;;;20.50;46.10;;;;;;4923177;29;20478;-89
2023/06/13 05:11:16;;;;;;;5.97;5.37;;;20.60;46.50;;;;;;4912409;29;20459;-88
2023/06/13 05:13:43;;;;;;;6.13;5.40;;;20.60;47.00;;;;;;4910463;29;20842;-88
2023/06/13 05:16:10;;;;;;;7.57;6.30;;;20.60;46.90;;;;;;4926947;29;20457;-88
2023/06/13 05:18:40;;;;;;;6.70;5.97;;;20.60;47.20;;;;;;4936058;28;20988;-87
2023/06/13 05:21:07;;;;;;;7.60;6.00;;;20.60;46.00;;;;;;4932277;29;20466;-89
2023/06/13 05:23:38;;;;;;;7.20;5.80;;;20.60;47.30;;;;;;4912140;29;20450;-87
2023/06/13 05:26:05;;;;;;;10.90;5.77;;;20.70;46.90;;;;;;4911851;29;20455;-88
2023/06/13 05:28:33;;;;;;;12.50;6.97;;;20.80;46.50;;;;;;4927222;29;20470;-89
2023/06/13 05:31:01;;;;;;;12.30;6.30;;;20.80;45.80;;;;;;4926125;29;20985;-88
2023/06/13 05:33:28;;;;;;;12.20;5.87;;;20.90;46.40;;;;;;4918563;29;21088;-88
2023/06/13 05:35:55;;;;;;;10.30;7.20;;;21.00;46.00;;;;;;4925451;29;20446;-89
2023/06/13 05:38:22;;;;;;;12.53;7.10;;;21.00;46.40;;;;;;4934888;28;20480;-87
2023/06/13 05:40:49;;;;;;;17.17;7.33;;;20.90;44.90;;;;;;4926926;29;20495;-88
2023/06/13 05:43:19;;;;;;;11.63;6.57;;;20.80;45.20;;;;;;4926490;29;20463;-88
2023/06/13 05:45:48;;;;;;;8.63;6.53;;;21.00;45.90;;;;;;4903812;28;20833;-89
2023/06/13 05:48:15;;;;;;;9.83;6.40;;;21.10;45.60;;;;;;4912604;29;20478;-89
2023/06/13 05:50:42;;;;;;;10.33;6.60;;;21.30;46.80;;;;;;4912086;29;20452;-87
2023/06/13 05:53:10;;;;;;;18.83;6.10;;;21.10;45.30;;;;;;4921523;29;20454;-88
2023/06/13 05:55:37;;;;;;;5.77;5.27;;;21.00;45.60;;;;;;4929024;29;21153;-87
2023/06/13 05:58:05;;;;;;;6.70;5.47;;;20.90;46.20;;;;;;4939433;28;20472;-87
2023/06/13 06:00:31;;;;;;;6.73;5.40;;;21.30;47.20;;;;;;4917415;29;20548;-88
2023/06/13 06:03:00;;;;;;;7.30;6.47;;;21.60;47.00;;;;;;4914104;29;20466;-89
2023/06/13 06:05:29;;;;;;;8.67;5.20;;;22.00;46.70;;;;;;4905502;29;20895;-86
2023/06/13 06:07:55;;;;;;;7.40;6.33;;;21.90;45.50;;;;;;4923628;29;20470;-87
2023/06/13 06:10:22;;;;;;;6.33;5.70;;;21.70;46.10;;;;;;4928223;29;20447;-88
2023/06/13 06:12:49;;;;;;;5.77;4.97;;;21.80;46.80;;;;;;4914116;29;20450;-88
2023/06/13 06:15:16;;;;;;;6.63;5.10;;;22.00;45.30;;;;;;4940419;29;20446;-89
2023/06/13 06:17:43;;;;;;;8.10;5.57;;;22.00;44.40;;;;;;4928170;29;20975;-87
2023/06/13 06:20:12;;;;;;;5.50;4.90;;;22.10;44.80;;;;;;4914594;29;20474;-88
2023/06/13 06:22:39;;;;;;;6.17;5.43;;;22.10;44.30;;;;;;4921272;29;20979;-86
2023/06/13 06:25:08;;;;;;;6.40;4.60;;;22.30;43.60;;;;;;4916736;29;20459;-88
2023/06/13 06:27:35;;;;;;;6.87;5.03;;;22.60;43.50;;;;;;4913162;29;20895;-87
2023/06/13 06:30:04;;;;;;;4.60;4.20;;;22.70;41.40;;;;;;4937878;29;20457;-85
2023/06/13 06:32:31;;;;;;;5.07;4.67;;;23.00;42.00;;;;;;4939598;28;20940;-88
2023/06/13 06:34:58;;;;;;;5.53;4.57;;;23.20;40.30;;;;;;4936163;29;22559;-86
2023/06/13 06:37:27;;;;;;;7.13;4.70;;;23.20;40.50;;;;;;4909058;29;20915;-87
2023/06/13 06:39:54;;;;;;;4.80;4.40;;;23.40;40.50;;;;;;4919238;29;20477;-87
2023/06/13 06:42:21;;;;;;;6.67;4.77;;;23.40;41.20;;;;;;4924238;29;20459;-88
2023/06/13 06:45:06;;;;;;;12.83;4.90;;;23.60;40.30;;;;;;4910404;29;20447;-88
2023/06/13 06:47:33;;;;;;;15.93;5.53;;;23.80;38.80;;;;;;4942226;29;20832;-86
2023/06/13 06:49:59;;;;;;;5.50;5.00;;;23.80;38.60;;;;;;4923178;29;20548;-87
2023/06/13 06:52:28;;;;;;;4.63;4.20;;;23.80;39.80;;;;;;4923900;29;20952;-87
2023/06/13 06:54:55;;;;;;;6.73;4.23;;;24.10;39.60;;;;;;4925216;29;20800;-87
2023/06/13 06:57:22;;;;;;;5.30;4.40;;;24.30;39.20;;;;;;4910413;29;20458;-88
2023/06/13 06:59:49;;;;;;;5.70;4.70;;;24.50;38.50;;;;;;4907528;29;20553;-86
2023/06/13 07:02:16;;;;;;;6.47;4.77;;;24.30;38.10;;;;;;4926102;29;20470;-87
2023/06/13 07:04:44;;;;;;;4.87;4.37;;;24.30;38.60;;;;;;4919587;29;20454;-86
2023/06/13 07:07:11;;;;;;;6.10;3.97;;;24.40;39.20;;;;;;4938711;29;20474;-88
2023/06/13 07:09:40;;;;;;;10.53;5.50;;;24.60;39.20;;;;;;4927468;29;20475;-88
2023/06/13 07:12:07;;;;;;;4.57;4.17;;;24.70;38.70;;;;;;4929406;29;21031;-87
2023/06/13 07:14:35;;;;;;;5.93;3.80;;;24.60;37.60;;;;;;4909919;29;20466;-86
2023/06/13 07:17:05;;;;;;;5.27;4.63;;;24.80;37.90;;;;;;4921629;29;20455;-87
2023/06/13 07:19:32;;;;;;;5.63;4.30;;;24.80;37.00;;;;;;4925538;29;20470;-86
2023/06/13 07:22:00;;;;;;;5.30;4.37;;;24.70;37.50;;;;;;4936624;29;20505;-88
2023/06/13 07:24:27;;;;;;;8.53;3.90;;;24.90;36.60;;;;;;4914229;29;20466;-88
2023/06/13 07:26:56;;;;;;;4.43;4.03;;;25.00;36.90;;;;;;4925261;29;20916;-88
2023/06/13 07:29:22;;;;;;;4.53;3.97;;;25.10;35.40;;;;;;4941440;28;20476;-87
2023/06/13 07:31:49;;;;;;;4.93;4.17;;;25.40;37.20;;;;;;4931448;29;20439;-88
2023/06/13 07:34:16;;;;;;;8.57;4.43;;;25.60;35.60;;;;;;4926876;29;20454;-87
2023/06/13 07:36:44;;;;;;;10.10;4.30;;;25.40;35.70;;;;;;4908656;29;20800;-88
2023/06/13 07:39:12;;;;;;;5.00;4.07;;;25.30;35.70;;;;;;4927750;29;20463;-88
2023/06/13 07:41:39;;;;;;;6.53;4.63;;;25.20;36.20;;;;;;4924055;29;20487;-88
2023/06/13 07:44:07;;;;;;;6.07;4.00;;;25.20;36.30;;;;;;4930697;28;20457;-88
2023/06/13 07:46:34;;;;;;;5.67;4.60;;;25.20;36.10;;;;;;4926549;29;20542;-87
2023/06/13 07:49:01;;;;;;;5.60;4.67;;;25.10;36.80;;;;;;4915621;29;21545;-88
2023/06/13 07:51:29;;;;;;;7.40;4.13;;;24.90;36.30;;;;;;4906280;29;20451;-88
2023/06/13 07:53:56;;;;;;;6.10;4.20;;;25.20;36.70;;;;;;4908720;29;20457;-86
2023/06/13 07:56:22;;;;;;;6.20;4.17;;;25.40;35.40;;;;;;4901113;29;20481;-87
2023/06/13 07:58:49;;;;;;;6.50;3.70;;;25.60;35.90;;;;;;4906790;29;20463;-86
2023/06/13 08:01:18;;;;;;;4.77;4.33;;;25.90;34.10;;;;;;4927233;29;20474;-85
2023/06/13 08:03:45;;;;;;;5.00;4.40;;;26.20;33.80;;;;;;4920282;29;20541;-85
2023/06/13 08:06:12;;;;;;;4.47;4.07;;;26.20;33.20;;;;;;4931314;28;20502;-87
2023/06/13 08:08:39;;;;;;;6.37;4.60;;;26.20;32.40;;;;;;4930763;29;20886;-85
2023/06/13 08:11:06;;;;;;;5.30;4.23;;;26.00;33.60;;;;;;4921851;29;20447;-87
2023/06/13 08:13:33;;;;;;;10.60;4.47;;;26.30;35.00;;;;;;4923659;29;20457;-87
2023/06/13 08:16:02;;;;;;;6.37;4.13;;;26.50;33.10;;;;;;4926036;29;20454;-86
2023/06/13 08:18:30;;;;;;;7.50;4.30;;;26.40;32.30;;;;;;4922708;29;20470;-87
2023/06/13 08:20:57;;;;;;;6.40;4.57;;;26.40;32.00;;;;;;4907958;29;20554;-88
2023/06/13 08:23:24;;;;;;;4.53;4.13;;;26.40;32.50;;;;;;4908902;29;20886;-85
2023/06/13 08:25:51;;;;;;;6.90;4.47;;;26.40;32.00;;;;;;4923283;29;20883;-87
2023/06/13 08:28:18;;;;;;;5.33;3.73;;;26.20;30.20;;;;;;4902489;29;20509;-87
2023/06/13 08:30:46;;;;;;;4.23;3.83;;;26.40;31.90;;;;;;4908014;29;20450;-89
2023/06/13 08:33:13;;;;;;;6.13;3.73;;;26.60;29.50;;;;;;4927039;29;20475;-87
2023/06/13 08:35:41;;;;;;;4.53;3.90;;;26.70;29.80;;;;;;4924522;29;20906;-88
2023/06/13 08:38:08;;;;;;;5.10;4.07;;;27.00;30.30;;;;;;4911233;29;20488;-88
2023/06/13 08:40:35;;;;;;;9.13;4.30;;;27.40;31.50;;;;;;4942744;29;20534;-88
2023/06/13 08:43:03;;;;;;;7.17;3.80;;;27.40;29.70;;;;;;4906538;29;21262;-88
2023/06/13 08:45:30;;;;;;;4.93;4.53;;;27.40;29.50;;;;;;4926355;29;20698;-89
2023/06/13 08:47:59;;;;;;;4.93;3.70;;;27.40;29.20;;;;;;4925202;29;20504;-87
2023/06/13 08:50:27;;;;;;;5.73;4.40;;;27.60;29.90;;;;;;4909232;29;20454;-86
2023/06/13 08:52:55;;;;;;;4.30;3.90;;;27.80;30.70;;;;;;4912060;29;20450;-89
2023/06/13 08:55:24;;;;;;;4.80;4.07;;;28.10;29.00;;;;;;4928485;29;20506;-86
2023/06/13 08:57:53;;;;;;;6.70;3.67;;;28.20;27.50;;;;;;4936825;28;20982;-85
2023/06/13 09:00:22;;;;;;;4.50;4.10;;;28.10;27.80;;;;;;4925226;29;20485;-87
2023/06/13 09:02:50;;;;;;;5.30;4.00;;;28.10;26.50;;;;;;4926245;29;20466;-87
2023/06/13 09:05:18;;;;;;;8.30;4.47;;;27.80;26.80;;;;;;4910149;29;20450;-86
2023/06/13 09:07:46;;;;;;;4.80;3.80;;;27.70;27.30;;;;;;4941324;28;20922;-85
2023/06/13 09:10:15;;;;;;;4.50;4.13;;;27.60;27.50;;;;;;4915938;29;20541;-86
2023/06/13 09:12:44;;;;;;;4.37;3.97;;;27.90;27.50;;;;;;4931355;29;20464;-86
2023/06/13 09:15:12;;;;;;;5.63;5.10;;;27.80;27.30;;;;;;4912635;29;20454;-85
2023/06/13 09:17:39;;;;;;;6.63;3.83;;;27.80;27.20;;;;;;4926330;28;20449;-86
2023/06/13 09:20:08;;;;;;;4.57;3.63;;;28.00;27.60;;;;;;4926057;29;20466;-88
2023/06/13 09:22:36;;;;;;;5.73;4.10;;;28.00;27.20;;;;;;4931260;29;20939;-89
2023/06/13 09:25:04;;;;;;;4.10;3.73;;;28.00;26.80;;;;;;4931773;29;20459;-89
2023/06/13 09:27:33;;;;;;;4.10;3.70;;;28.10;28.30;;;;;;4915179;29;20459;-88
2023/06/13 09:30:01;;;;;;;6.20;4.23;;;28.30;27.30;;;;;;4912388;29;20801;-87
2023/06/13 09:32:28;;;;;;;4.00;3.60;;;28.40;27.80;;;;;;4930401;29;21124;-86
2023/06/13 09:34:55;;;;;;;5.93;4.00;;;28.80;26.60;;;;;;4913540;29;20540;-86
2023/06/13 09:37:26;;;;;;;3.50;3.20;;;28.70;25.50;;;;;;4926935;29;20467;-84
2023/06/13 09:39:53;;;;;;;3.73;3.43;;;28.90;26.60;;;;;;4905677;29;20972;-87
2023/06/13 09:42:22;;;;;;;3.97;3.57;;;29.00;25.50;;;;;;4922816;29;20484;-87
2023/06/13 09:44:51;;;;;;;4.57;3.23;;;28.80;25.10;;;;;;4909630;29;20538;-86
2023/06/13 09:47:22;;;;;;;3.97;3.67;;;28.80;25.40;;;;;;4926073;29;20455;-86
2023/06/13 09:49:53;;;;;;;4.43;3.70;;;28.90;25.70;;;;;;4918392;29;20470;-89
2023/06/13 09:52:24;;;;;;;5.87;3.90;;;29.10;25.30;;;;;;4929356;29;20542;-87
2023/06/13 09:54:51;;;;;;;3.80;3.50;;;29.20;24.90;;;;;;4924912;29;20919;-86
2023/06/13 09:57:18;;;;;;;7.33;3.80;;;28.90;24.70;;;;;;4938054;29;20458;-87
2023/06/13 09:59:48;;;;;;;6.13;3.50;;;29.20;24.70;;;;;;4935606;28;20452;-85
2023/06/13 10:02:17;;;;;;;3.50;3.07;;;29.30;25.40;;;;;;4937182;29;20490;-87
2023/06/13 10:04:44;;;;;;;4.73;4.10;;;29.20;25.00;;;;;;4910407;29;20462;-84
2023/06/13 10:07:12;;;;;;;4.90;3.50;;;29.40;24.30;;;;;;4927734;29;22234;-85
2023/06/13 10:09:39;;;;;;;12.57;4.00;;;29.40;24.50;;;;;;4927257;29;20463;-85
2023/06/13 10:12:10;;;;;;;5.53;3.10;;;29.70;24.30;;;;;;4910100;29;20448;-85
2023/06/13 10:14:41;;;;;;;5.23;3.50;;;29.90;23.30;;;;;;4924906;29;21189;-87
2023/06/13 10:17:12;;;;;;;3.80;3.33;;;30.10;23.80;;;;;;4919064;29;20960;-86
2023/06/13 10:19:42;;;;;;;5.53;3.40;;;30.30;23.50;;;;;;4936317;28;21028;-87
2023/06/13 10:22:09;;;;;;;3.57;3.27;;;30.30;24.30;;;;;;4924221;29;20467;-87
2023/06/13 10:24:38;;;;;;;8.87;3.40;;;30.40;23.50;;;;;;4925191;29;20537;-87
2023/06/13 10:27:07;;;;;;;4.90;3.80;;;30.20;23.40;;;;;;4928221;29;20474;-87
2023/06/13 10:30:08;;;;;;;5.60;3.40;;;29.80;23.20;;;;;;4922632;29;20481;-86
2023/06/13 10:33:10;;;;;;;3.83;3.53;;;29.80;23.60;;;;;;4938004;28;20459;-86
2023/06/13 10:36:03;;;;;;;5.70;3.40;;;30.20;23.20;;;;;;4911943;29;20542;-85
2023/06/13 10:38:55;;;;;;;3.80;3.50;;;30.20;23.90;;;;;;4938278;29;20478;-86
2023/06/13 10:41:36;;;;;;;3.83;3.13;;;30.30;23.40;;;;;;4903488;29;20597;-86
2023/06/13 10:44:08;;;;;;;11.23;6.73;;;29.60;23.70;;;;;;4910276;29;20451;-86
2023/06/13 10:46:36;;;;;;;3.57;3.20;;;29.60;24.80;;;;;;4922889;29;20478;-85
2023/06/13 10:49:03;;;;;;;6.63;3.60;;;29.50;24.60;;;;;;4940591;28;20470;-86
2023/06/13 10:51:32;;;;;;;3.83;3.50;;;29.90;24.50;;;;;;4935779;28;20447;-87
2023/06/13 10:54:08;;;;;;;3.80;3.50;;;30.20;23.50;;;;;;4925805;29;20466;-85
2023/06/13 10:56:39;;;;;;;3.37;3.07;;;30.30;23.10;;;;;;4932016;29;20447;-86
2023/06/13 10:59:07;;;;;;;4.97;3.90;;;30.50;23.60;;;;;;4940951;28;20474;-86
2023/06/13 11:01:35;;;;;;;5.43;3.70;;;30.30;22.40;;;;;;4902082;29;20467;-86
2023/06/13 11:04:11;;;;;;;4.90;3.80;;;30.50;22.30;;;;;;4904232;29;20451;-85
2023/06/13 11:06:42;;;;;;;4.60;3.23;;;30.60;23.40;;;;;;4918557;29;20945;-86
2023/06/13 11:09:16;;;;;;;11.57;3.77;;;31.10;22.60;;;;;;4932491;29;20497;-86
2023/06/13 11:11:45;;;;;;;8.00;3.53;;;31.30;22.40;;;;;;4919523;29;20539;-87
2023/06/13 11:14:12;;;;;;;5.07;3.77;;;31.10;22.40;;;;;;4927473;29;20461;-86
2023/06/13 11:16:40;;;;;;;3.47;3.10;;;31.00;22.00;;;;;;4908068;29;20450;-85
2023/06/13 11:19:13;;;;;;;7.17;4.03;;;31.20;22.10;;;;;;4935349;29;20462;-86
2023/06/13 11:21:45;;;;;;;4.17;3.77;;;31.50;21.30;;;;;;4926957;29;20479;-86
2023/06/13 11:24:15;;;;;;;6.30;3.70;;;31.30;22.20;;;;;;4936449;29;20451;-87
2023/06/13 11:26:43;;;;;;;3.50;3.20;;;31.50;22.20;;;;;;4919711;29;20995;-86
2023/06/13 11:29:11;;;;;;;4.10;3.60;;;31.70;22.90;;;;;;4911248;29;20588;-86
2023/06/13 11:31:40;;;;;;;4.40;3.10;;;32.00;22.10;;;;;;4911255;29;21446;-86
2023/06/13 11:34:12;;;;;;;4.13;3.57;;;32.20;21.80;;;;;;4935881;29;20526;-86
2023/06/13 11:36:44;;;;;;;3.70;3.33;;;32.20;21.40;;;;;;4933478;29;20458;-85
2023/06/13 11:39:12;;;;;;;4.73;3.17;;;32.30;21.80;;;;;;4904891;29;20497;-87
2023/06/13 11:41:40;;;;;;;3.73;3.17;;;31.80;21.60;;;;;;4938871;29;20477;-85
2023/06/13 11:44:07;;;;;;;9.23;3.73;;;31.70;21.70;;;;;;4922236;29;20491;-87
2023/06/13 11:46:35;;;;;;;3.60;3.30;;;31.80;21.70;;;;;;4934660;29;20869;-86
2023/06/13 11:49:02;;;;;;;3.80;3.50;;;31.90;22.00;;;;;;4917469;29;20478;-86
2023/06/13 11:51:31;;;;;;;4.20;3.80;;;32.00;21.50;;;;;;4933173;29;20445;-86
2023/06/13 11:54:01;;;;;;;5.07;3.40;;;32.40;21.40;;;;;;4938098;29;21193;-87
2023/06/13 11:56:28;;;;;;;4.80;3.93;;;32.60;21.40;;;;;;4921039;29;20474;-86
2023/06/13 11:58:57;;;;;;;3.67;3.37;;;32.40;21.10;;;;;;4921760;29;20483;-87
2023/06/13 12:01:26;;;;;;;3.70;3.30;;;32.10;21.30;;;;;;4917967;29;20496;-85
2023/06/13 12:03:53;;;;;;;4.50;3.70;;;32.20;21.40;;;;;;4919229;29;20466;-86
2023/06/13 12:06:21;;;;;;;4.27;3.30;;;32.20;21.40;;;;;;4909802;29;20447;-86
2023/06/13 12:08:49;;;;;;;4.10;3.70;;;32.40;21.40;;;;;;4922917;29;20497;-84
2023/06/13 12:11:19;;;;;;;3.80;3.40;;;32.00;21.50;;;;;;4922162;29;20447;-85
2023/06/13 12:13:54;;;;;;;4.33;3.60;;;31.70;21.90;;;;;;4919867;29;20498;-86
2023/06/13 12:16:23;;;;;;;4.10;3.10;;;31.50;22.50;;;;;;4937382;29;20442;-86
2023/06/13 12:18:52;;;;;;;8.40;3.60;;;31.60;21.60;;;;;;4919039;29;20467;-86
2023/06/13 12:21:20;;;;;;;7.10;4.13;;;31.50;22.90;;;;;;4931633;29;20545;-86
2023/06/13 12:23:47;;;;;;;4.87;3.80;;;31.60;22.90;;;;;;4932855;29;20462;-85
2023/06/13 12:26:14;;;;;;;6.70;3.53;;;31.60;21.10;;;;;;4922250;29;20824;-86
2023/06/13 12:28:44;;;;;;;3.53;3.30;;;31.90;22.10;;;;;;4908022;29;20478;-87
2023/06/13 12:31:11;;;;;;;3.53;3.23;;;32.00;20.90;;;;;;4931778;29;21146;-87
2023/06/13 12:33:38;;;;;;;4.73;3.73;;;32.20;21.90;;;;;;4941934;28;20494;-85
2023/06/13 12:36:08;;;;;;;3.73;3.43;;;32.30;20.90;;;;;;4924115;29;20462;-84
2023/06/13 12:38:35;;;;;;;5.10;3.80;;;32.20;21.60;;;;;;4917542;29;20565;-84
2023/06/13 12:41:14;;;;;;;5.60;4.30;;;32.60;21.10;;;;;;4918363;29;20450;-84
2023/06/13 12:43:45;;;;;;;4.90;3.93;;;32.60;20.10;;;;;;4922845;29;20439;-85
2023/06/13 12:46:13;;;;;;;6.90;3.20;;;32.30;20.40;;;;;;4916137;29;21417;-85
2023/06/13 12:48:40;;;;;;;8.10;3.93;;;32.20;20.80;;;;;;4916315;29;20486;-85
2023/06/13 12:51:08;;;;;;;4.37;3.60;;;32.70;21.50;;;;;;4918439;29;20461;-84
2023/06/13 12:53:35;;;;;;;4.10;3.10;;;32.90;20.00;;;;;;4918733;29;20455;-87